sensor_id;sensor_type;location;lat;lon;timestamp;pressure;altitude;pressure_sealevel;temperature;humidity
19023;BME280;35226;48.606;8.858;2023-04-20T00:02:17;96188.16;;;4.20;100.00
19023;BME280;35226;48.606;8.858;2023-04-20T00:04:42;96189.38;;;4.12;100.00
19023;BME280;35226;48.606;8.858;2023-04-20T00:07:08;96173.03;;;4.08;100.00
19023;BME280;35226;48.606;8.858;2023-04-20T00:09:33;96178.50;;;4.04;100.00
19023;BME280;35226;48.606;8.858;2023-04-20T00:11:59;96173.03;;;4.08;100.00
19023;BME280;35226;48.606;8.858;2023-04-20T00:14:26;96169.13;;;4.05;100.00
19023;BME280;35226;48.606;8.858;2023-04-20T00:16:51;96156.72;;;3.94;100.00
19023;BME280;35226;48.606;8.858;2023-04-20T00:19:17;96155.47;;;4.02;100.00
19023;BME280;35226;48.606;8.858;2023-04-20T00:21:42;96163.25;;;4.07;100.00
19023;BME280;35226;48.606;8.858;2023-04-20T00:24:08;96163.28;;;4.03;100.00
19023;BME280;35226;48.606;8.858;2023-04-20T00:26:33;96170.84;;;3.89;100.00
19023;BME280;35226;48.606;8.858;2023-04-20T00:29:00;96169.03;;;3.71;100.00
19023;BME280;35226;48.606;8.858;2023-04-20T00:31:25;96164.84;;;3.56;100.00
19023;BME280;35226;48.606;8.858;2023-04-20T00:33:51;96158.47;;;3.73;100.00
19023;BME280;35226;48.606;8.858;2023-04-20T00:36:16;96148.75;;;3.69;100.00
19023;BME280;35226;48.606;8.858;2023-04-20T00:38:42;96149.47;;;3.73;100.00
19023;BME280;35226;48.606;8.858;2023-04-20T00:41:07;96139.38;;;3.70;100.00
19023;BME280;35226;48.606;8.858;2023-04-20T00:43:33;96135.50;;;3.67;100.00
19023;BME280;35226;48.606;8.858;2023-04-20T00:45:58;96135.09;;;3.69;100.00
19023;BME280;35226;48.606;8.858;2023-04-20T00:48:23;96127.69;;;3.66;100.00
19023;BME280;35226;48.606;8.858;2023-04-20T00:50:50;96125.72;;;3.66;100.00
19023;BME280;35226;48.606;8.858;2023-04-20T00:53:16;96121.03;;;3.70;100.00
19023;BME280;35226;48.606;8.858;2023-04-20T00:55:43;96117.47;;;3.73;100.00
19023;BME280;35226;48.606;8.858;2023-04-20T00:58:10;96119.50;;;3.66;100.00
19023;BME280;35226;48.606;8.858;2023-04-20T01:00:37;96132.81;;;3.60;100.00
19023;BME280;35226;48.606;8.858;2023-04-20T01:03:04;96125.41;;;3.57;100.00
19023;BME280;35226;48.606;8.858;2023-04-20T01:05:31;96116.88;;;3.52;100.00
19023;BME280;35226;48.606;8.858;2023-04-20T01:07:56;96113.47;;;3.37;100.00
19023;BME280;35226;48.606;8.858;2023-04-20T01:10:22;96102.59;;;3.30;100.00
19023;BME280;35226;48.606;8.858;2023-04-20T01:12:47;96104.94;;;3.28;100.00
19023;BME280;35226;48.606;8.858;2023-04-20T01:15:13;96100.66;;;3.30;100.00
19023;BME280;35226;48.606;8.858;2023-04-20T01:17:38;96094.34;;;3.37;100.00
19023;BME280;35226;48.606;8.858;2023-04-20T01:20:05;96089.28;;;3.39;100.00
19023;BME280;35226;48.606;8.858;2023-04-20T01:23:03;96090.44;;;3.38;100.00
19023;BME280;35226;48.606;8.858;2023-04-20T01:25:28;96080.31;;;3.39;100.00
19023;BME280;35226;48.606;8.858;2023-04-20T01:27:54;96079.91;;;3.40;100.00
19023;BME280;35226;48.606;8.858;2023-04-20T01:30:20;96079.53;;;3.34;100.00
19023;BME280;35226;48.606;8.858;2023-04-20T01:32:46;96074.09;;;3.34;100.00
19023;BME280;35226;48.606;8.858;2023-04-20T01:35:11;96066.66;;;3.35;100.00
19023;BME280;35226;48.606;8.858;2023-04-20T01:37:38;96058.88;;;3.33;100.00
19023;BME280;35226;48.606;8.858;2023-04-20T01:40:05;96067.06;;;3.33;100.00
19023;BME280;35226;48.606;8.858;2023-04-20T01:42:32;96064.78;;;3.28;100.00
19023;BME280;35226;48.606;8.858;2023-04-20T01:44:58;96057.44;;;3.22;100.00
19023;BME280;35226;48.606;8.858;2023-04-20T01:47:23;96048.22;;;3.02;100.00
19023;BME280;35226;48.606;8.858;2023-04-20T01:49:48;96055.28;;;2.92;100.00
19023;BME280;35226;48.606;8.858;2023-04-20T01:52:14;96052.25;;;2.79;100.00
19023;BME280;35226;48.606;8.858;2023-04-20T01:54:39;96046.44;;;2.74;100.00
19023;BME280;35226;48.606;8.858;2023-04-20T01:57:05;96045.72;;;2.63;100.00
19023;BME280;35226;48.606;8.858;2023-04-20T01:59:30;96037.88;;;2.68;100.00
19023;BME280;35226;48.606;8.858;2023-04-20T02:01:56;96046.06;;;2.72;100.00
19023;BME280;35226;48.606;8.858;2023-04-20T02:04:23;96049.50;;;2.79;100.00
19023;BME280;35226;48.606;8.858;2023-04-20T02:06:48;96039.00;;;2.78;100.00
19023;BME280;35226;48.606;8.858;2023-04-20T02:09:14;96036.66;;;2.80;100.00
19023;BME280;35226;48.606;8.858;2023-04-20T02:11:39;96030.44;;;2.76;100.00
19023;BME280;35226;48.606;8.858;2023-04-20T02:14:05;96024.63;;;2.74;100.00
19023;BME280;35226;48.606;8.858;2023-04-20T02:16:30;96032.03;;;2.70;100.00
19023;BME280;35226;48.606;8.858;2023-04-20T02:18:56;96029.31;;;2.70;100.00
19023;BME280;35226;48.606;8.858;2023-04-20T02:21:22;96021.19;;;2.59;100.00
19023;BME280;35226;48.606;8.858;2023-04-20T02:23:47;96019.25;;;2.56;100.00
19023;BME280;35226;48.606;8.858;2023-04-20T02:26:13;96023.56;;;2.50;100.00
19023;BME280;35226;48.606;8.858;2023-04-20T02:28:39;96007.59;;;2.52;100.00
19023;BME280;35226;48.606;8.858;2023-04-20T02:31:04;96008.03;;;2.43;100.00
19023;BME280;35226;48.606;8.858;2023-04-20T02:33:30;96012.72;;;2.36;100.00
19023;BME280;35226;48.606;8.858;2023-04-20T02:35:55;96008.06;;;2.36;100.00
19023;BME280;35226;48.606;8.858;2023-04-20T02:38:21;96011.56;;;2.37;100.00
19023;BME280;35226;48.606;8.858;2023-04-20T02:40:46;96007.69;;;2.34;100.00
19023;BME280;35226;48.606;8.858;2023-04-20T02:43:12;96003.81;;;2.28;100.00
19023;BME280;35226;48.606;8.858;2023-04-20T02:45:39;95999.53;;;2.27;100.00
19023;BME280;35226;48.606;8.858;2023-04-20T02:48:06;96004.25;;;2.19;100.00
19023;BME280;35226;48.606;8.858;2023-04-20T02:50:32;95997.28;;;2.15;100.00
19023;BME280;35226;48.606;8.858;2023-04-20T02:53:20;96006.97;;;2.23;100.00
19023;BME280;35226;48.606;8.858;2023-04-20T02:55:52;96008.91;;;2.22;100.00
19023;BME280;35226;48.606;8.858;2023-04-20T02:58:34;96002.34;;;2.13;100.00
19023;BME280;35226;48.606;8.858;2023-04-20T03:01:18;96001.16;;;2.10;100.00
19023;BME280;35226;48.606;8.858;2023-04-20T03:03:46;95996.88;;;2.06;100.00
19023;BME280;35226;48.606;8.858;2023-04-20T03:06:12;95996.53;;;2.00;100.00
19023;BME280;35226;48.606;8.858;2023-04-20T03:08:42;95987.56;;;2.03;100.00
19023;BME280;35226;48.606;8.858;2023-04-20T03:11:27;95986.41;;;2.01;100.00
19023;BME280;35226;48.606;8.858;2023-04-20T03:13:53;95977.47;;;2.00;100.00
19023;BME280;35226;48.606;8.858;2023-04-20T03:16:18;95979.06;;;1.94;100.00
19023;BME280;35226;48.606;8.858;2023-04-20T03:18:48;95971.25;;;1.96;100.00
19023;BME280;35226;48.606;8.858;2023-04-20T03:21:13;95972.44;;;1.88;100.00
19023;BME280;35226;48.606;8.858;2023-04-20T03:23:39;95964.66;;;1.90;100.00
19023;BME280;35226;48.606;8.858;2023-04-20T03:26:06;95968.59;;;1.85;100.00
19023;BME280;35226;48.606;8.858;2023-04-20T03:28:52;95967.38;;;1.90;100.00
19023;BME280;35226;48.606;8.858;2023-04-20T03:31:22;95965.44;;;1.87;100.00
19023;BME280;35226;48.606;8.858;2023-04-20T03:33:49;95957.31;;;1.83;100.00
19023;BME280;35226;48.606;8.858;2023-04-20T03:36:15;95961.97;;;1.79;100.00
19023;BME280;35226;48.606;8.858;2023-04-20T03:38:41;95962.38;;;1.71;100.00
19023;BME280;35226;48.606;8.858;2023-04-20T03:41:06;95962.78;;;1.69;100.00
19023;BME280;35226;48.606;8.858;2023-04-20T03:43:33;95955.38;;;1.73;100.00
19023;BME280;35226;48.606;8.858;2023-04-20T03:45:58;95957.72;;;1.71;100.00
19023;BME280;35226;48.606;8.858;2023-04-20T03:48:24;95959.28;;;1.72;100.00
19023;BME280;35226;48.606;8.858;2023-04-20T03:50:51;95959.28;;;1.69;100.00
19023;BME280;35226;48.606;8.858;2023-04-20T03:53:16;95965.47;;;1.76;100.00
19023;BME280;35226;48.606;8.858;2023-04-20T03:55:42;95955.78;;;1.68;100.00
19023;BME280;35226;48.606;8.858;2023-04-20T03:58:11;95961.22;;;1.68;100.00
19023;BME280;35226;48.606;8.858;2023-04-20T04:00:46;95960.09;;;1.59;100.00
19023;BME280;35226;48.606;8.858;2023-04-20T04:03:14;95953.88;;;1.55;100.00
19023;BME280;35226;48.606;8.858;2023-04-20T04:05:40;95957.00;;;1.49;100.00
19023;BME280;35226;48.606;8.858;2023-04-20T04:08:06;95954.66;;;1.48;100.00
19023;BME280;35226;48.606;8.858;2023-04-20T04:10:32;95949.25;;;1.44;100.00
19023;BME280;35226;48.606;8.858;2023-04-20T04:12:58;95952.34;;;1.39;100.00
19023;BME280;35226;48.606;8.858;2023-04-20T04:15:23;95950.44;;;1.33;100.00
19023;BME280;35226;48.606;8.858;2023-04-20T04:17:59;95948.13;;;1.24;100.00
19023;BME280;35226;48.606;8.858;2023-04-20T04:20:28;95946.19;;;1.25;100.00
19023;BME280;35226;48.606;8.858;2023-04-20T04:22:53;95947.72;;;1.26;100.00
19023;BME280;35226;48.606;8.858;2023-04-20T04:25:31;95941.88;;;1.34;100.00
19023;BME280;35226;48.606;8.858;2023-04-20T04:27:56;95951.19;;;1.40;100.00
19023;BME280;35226;48.606;8.858;2023-04-20T04:30:23;95947.69;;;1.43;100.00
19023;BME280;35226;48.606;8.858;2023-04-20T04:32:50;95948.09;;;1.45;100.00
19023;BME280;35226;48.606;8.858;2023-04-20T04:35:16;95951.16;;;1.55;100.00
19023;BME280;35226;48.606;8.858;2023-04-20T04:37:41;95945.69;;;1.62;100.00
19023;BME280;35226;48.606;8.858;2023-04-20T04:40:08;95943.38;;;1.64;100.00
19023;BME280;35226;48.606;8.858;2023-04-20T04:42:34;95940.63;;;1.64;100.00
19023;BME280;35226;48.606;8.858;2023-04-20T04:45:02;95940.22;;;1.76;100.00
19023;BME280;35226;48.606;8.858;2023-04-20T04:47:34;95940.19;;;1.83;100.00
19023;BME280;35226;48.606;8.858;2023-04-20T04:50:04;95942.88;;;1.86;100.00
19023;BME280;35226;48.606;8.858;2023-04-20T04:52:31;95942.47;;;1.92;100.00
19023;BME280;35226;48.606;8.858;2023-04-20T04:54:57;95940.91;;;1.91;100.00
19023;BME280;35226;48.606;8.858;2023-04-20T04:57:22;95934.31;;;1.92;100.00
19023;BME280;35226;48.606;8.858;2023-04-20T04:59:48;95939.75;;;1.92;100.00
19023;BME280;35226;48.606;8.858;2023-04-20T05:02:13;95942.81;;;1.97;100.00
19023;BME280;35226;48.606;8.858;2023-04-20T05:04:39;95938.97;;;1.88;100.00
19023;BME280;35226;48.606;8.858;2023-04-20T05:07:04;95946.75;;;1.93;100.00
19023;BME280;35226;48.606;8.858;2023-04-20T05:09:29;95944.41;;;1.91;100.00
19023;BME280;35226;48.606;8.858;2023-04-20T05:11:58;95957.22;;;2.05;100.00
19023;BME280;35226;48.606;8.858;2023-04-20T05:14:25;95954.50;;;2.01;100.00
19023;BME280;35226;48.606;8.858;2023-04-20T05:16:51;95959.16;;;2.01;100.00
19023;BME280;35226;48.606;8.858;2023-04-20T05:19:16;95956.44;;;1.97;100.00
19023;BME280;35226;48.606;8.858;2023-04-20T05:21:45;95958.00;;;2.02;100.00
19023;BME280;35226;48.606;8.858;2023-04-20T05:24:11;95954.84;;;2.07;100.00
19023;BME280;35226;48.606;8.858;2023-04-20T05:26:36;95952.13;;;2.10;100.00
19023;BME280;35226;48.606;8.858;2023-04-20T05:29:02;95958.72;;;2.13;100.00
19023;BME280;35226;48.606;8.858;2023-04-20T05:31:27;95958.38;;;2.00;100.00
19023;BME280;35226;48.606;8.858;2023-04-20T05:33:53;95949.00;;;2.12;100.00
19023;BME280;35226;48.606;8.858;2023-04-20T05:36:19;95949.34;;;2.25;100.00
19023;BME280;35226;48.606;8.858;2023-04-20T05:38:45;95946.56;;;2.28;100.00
19023;BME280;35226;48.606;8.858;2023-04-20T05:41:10;95955.47;;;2.43;100.00
19023;BME280;35226;48.606;8.858;2023-04-20T05:43:36;95947.94;;;2.57;100.00
19023;BME280;35226;48.606;8.858;2023-04-20T05:46:01;95947.16;;;2.64;100.00
19023;BME280;35226;48.606;8.858;2023-04-20T05:48:27;95948.72;;;2.62;100.00
19023;BME280;35226;48.606;8.858;2023-04-20T05:50:53;95958.41;;;2.70;100.00
19023;BME280;35226;48.606;8.858;2023-04-20T05:53:19;95946.69;;;2.73;100.00
19023;BME280;35226;48.606;8.858;2023-04-20T05:55:45;95950.72;;;2.54;100.00
19023;BME280;35226;48.606;8.858;2023-04-20T05:58:11;95957.34;;;2.53;100.00
19023;BME280;35226;48.606;8.858;2023-04-20T06:00:36;95956.94;;;2.54;100.00
19023;BME280;35226;48.606;8.858;2023-04-20T06:03:02;95954.16;;;2.62;100.00
19023;BME280;35226;48.606;8.858;2023-04-20T06:05:28;95955.72;;;2.59;100.00
19023;BME280;35226;48.606;8.858;2023-04-20T06:07:53;95956.47;;;2.67;100.00
19023;BME280;35226;48.606;8.858;2023-04-20T06:10:19;95963.41;;;2.75;100.00
19023;BME280;35226;48.606;8.858;2023-04-20T06:12:45;95954.69;;;2.94;100.00
19023;BME280;35226;48.606;8.858;2023-04-20T06:15:12;95959.34;;;3.01;100.00
19023;BME280;35226;48.606;8.858;2023-04-20T06:17:37;95958.50;;;3.07;100.00
19023;BME280;35226;48.606;8.858;2023-04-20T06:20:08;95956.13;;;3.13;100.00
19023;BME280;35226;48.606;8.858;2023-04-20T06:22:35;95956.84;;;3.17;100.00
19023;BME280;35226;48.606;8.858;2023-04-20T06:25:01;95960.28;;;3.24;100.00
19023;BME280;35226;48.606;8.858;2023-04-20T06:27:27;95955.56;;;3.32;100.00
19023;BME280;35226;48.606;8.858;2023-04-20T06:29:52;95954.34;;;3.33;100.00
19023;BME280;35226;48.606;8.858;2023-04-20T06:32:19;95954.69;;;3.42;100.00
19023;BME280;35226;48.606;8.858;2023-04-20T06:34:44;95947.25;;;3.43;100.00
19023;BME280;35226;48.606;8.858;2023-04-20T06:37:12;95951.41;;;3.54;100.00
19023;BME280;35226;48.606;8.858;2023-04-20T06:39:38;95945.47;;;3.63;100.00
19023;BME280;35226;48.606;8.858;2023-04-20T06:42:03;95936.09;;;3.64;100.00
19023;BME280;35226;48.606;8.858;2023-04-20T06:44:29;95934.38;;;3.81;100.00
19023;BME280;35226;48.606;8.858;2023-04-20T06:46:55;95937.31;;;3.93;100.00
19023;BME280;35226;48.606;8.858;2023-04-20T06:49:20;95932.25;;;3.92;100.00
19023;BME280;35226;48.606;8.858;2023-04-20T06:51:46;95932.88;;;4.06;100.00
19023;BME280;35226;48.606;8.858;2023-04-20T06:54:11;95930.69;;;4.25;100.00
19023;BME280;35226;48.606;8.858;2023-04-20T06:56:37;95931.22;;;4.43;100.00
19023;BME280;35226;48.606;8.858;2023-04-20T06:59:02;95936.59;;;4.50;100.00
19023;BME280;35226;48.606;8.858;2023-04-20T07:01:28;95925.03;;;4.39;100.00
19023;BME280;35226;48.606;8.858;2023-04-20T07:03:53;95925.53;;;4.57;100.00
19023;BME280;35226;48.606;8.858;2023-04-20T07:06:19;95920.22;;;4.73;100.00
19023;BME280;35226;48.606;8.858;2023-04-20T07:08:44;95915.50;;;4.74;100.00
19023;BME280;35226;48.606;8.858;2023-04-20T07:11:10;95917.72;;;4.82;100.00
19023;BME280;35226;48.606;8.858;2023-04-20T07:13:36;95917.31;;;4.84;100.00
19023;BME280;35226;48.606;8.858;2023-04-20T07:16:01;95924.28;;;4.89;100.00
19023;BME280;35226;48.606;8.858;2023-04-20T07:18:27;95910.59;;;5.12;100.00
19023;BME280;35226;48.606;8.858;2023-04-20T07:20:53;95908.31;;;5.30;100.00
19023;BME280;35226;48.606;8.858;2023-04-20T07:23:18;95902.94;;;5.46;100.00
19023;BME280;35226;48.606;8.858;2023-04-20T07:25:44;95909.06;;;5.54;100.00
19023;BME280;35226;48.606;8.858;2023-04-20T07:28:10;95909.84;;;5.54;100.00
19023;BME280;35226;48.606;8.858;2023-04-20T07:30:35;95908.03;;;5.68;100.00
19023;BME280;35226;48.606;8.858;2023-04-20T07:33:01;95904.59;;;5.83;100.00
19023;BME280;35226;48.606;8.858;2023-04-20T07:35:26;95901.56;;;5.78;100.00
19023;BME280;35226;48.606;8.858;2023-04-20T07:37:52;95904.81;;;5.92;100.00
19023;BME280;35226;48.606;8.858;2023-04-20T07:40:17;95901.34;;;6.08;100.00
19023;BME280;35226;48.606;8.858;2023-04-20T07:42:43;95903.81;;;6.22;100.00
19023;BME280;35226;48.606;8.858;2023-04-20T07:45:09;95902.69;;;6.20;100.00
19023;BME280;35226;48.606;8.858;2023-04-20T07:47:36;95909.13;;;6.29;100.00
19023;BME280;35226;48.606;8.858;2023-04-20T07:50:05;95906.63;;;6.19;100.00
19023;BME280;35226;48.606;8.858;2023-04-20T07:52:31;95910.25;;;6.32;100.00
19023;BME280;35226;48.606;8.858;2023-04-20T07:54:57;95913.91;;;6.45;100.00
19023;BME280;35226;48.606;8.858;2023-04-20T07:57:27;95909.25;;;6.42;100.00
19023;BME280;35226;48.606;8.858;2023-04-20T07:59:53;95915.53;;;6.59;100.00
19023;BME280;35226;48.606;8.858;2023-04-20T08:02:18;95908.97;;;6.73;100.00
19023;BME280;35226;48.606;8.858;2023-04-20T08:04:44;95902.63;;;6.76;100.00
19023;BME280;35226;48.606;8.858;2023-04-20T08:07:10;95903.13;;;6.87;100.00
19023;BME280;35226;48.606;8.858;2023-04-20T08:09:36;95907.84;;;6.86;100.00
19023;BME280;35226;48.606;8.858;2023-04-20T08:12:02;95908.44;;;6.78;100.00
19023;BME280;35226;48.606;8.858;2023-04-20T08:14:28;95907.66;;;6.77;100.00
19023;BME280;35226;48.606;8.858;2023-04-20T08:16:53;95906.13;;;6.76;100.00
19023;BME280;35226;48.606;8.858;2023-04-20T08:19:19;95909.22;;;6.78;100.00
19023;BME280;35226;48.606;8.858;2023-04-20T08:21:44;95913.41;;;6.66;100.00
19023;BME280;35226;48.606;8.858;2023-04-20T08:24:10;95904.16;;;6.60;100.00
19023;BME280;35226;48.606;8.858;2023-04-20T08:26:37;95907.72;;;6.57;100.00
19023;BME280;35226;48.606;8.858;2023-04-20T08:29:03;95901.56;;;6.53;100.00
19023;BME280;35226;48.606;8.858;2023-04-20T08:31:30;95910.72;;;6.47;100.00
19023;BME280;35226;48.606;8.858;2023-04-20T08:33:56;95906.28;;;6.53;100.00
19023;BME280;35226;48.606;8.858;2023-04-20T08:36:22;95901.56;;;6.53;100.00
19023;BME280;35226;48.606;8.858;2023-04-20T08:38:57;95897.63;;;6.54;100.00
19023;BME280;35226;48.606;8.858;2023-04-20T08:41:24;95900.03;;;6.52;100.00
19023;BME280;35226;48.606;8.858;2023-04-20T08:43:50;95896.94;;;6.50;100.00
19023;BME280;35226;48.606;8.858;2023-04-20T08:46:16;95902.59;;;6.43;100.00
19023;BME280;35226;48.606;8.858;2023-04-20T08:48:44;95905.31;;;6.43;100.00
19023;BME280;35226;48.606;8.858;2023-04-20T08:51:10;95904.91;;;6.45;100.00
19023;BME280;35226;48.606;8.858;2023-04-20T08:53:36;95892.31;;;6.27;100.00
19023;BME280;35226;48.606;8.858;2023-04-20T08:56:02;95901.25;;;6.31;100.00
19023;BME280;35226;48.606;8.858;2023-04-20T08:58:30;95898.59;;;6.28;100.00
19023;BME280;35226;48.606;8.858;2023-04-20T09:00:59;95898.59;;;6.28;100.00
19023;BME280;35226;48.606;8.858;2023-04-20T09:03:51;95900.22;;;6.25;100.00
19023;BME280;35226;48.606;8.858;2023-04-20T09:06:17;95898.75;;;6.21;100.00
19023;BME280;35226;48.606;8.858;2023-04-20T09:08:44;95909.28;;;6.22;100.00
19023;BME280;35226;48.606;8.858;2023-04-20T09:11:43;95900.56;;;6.27;100.00
19023;BME280;35226;48.606;8.858;2023-04-20T09:14:10;95892.91;;;6.19;100.00
19023;BME280;35226;48.606;8.858;2023-04-20T09:16:46;95895.19;;;6.04;100.00
19023;BME280;35226;48.606;8.858;2023-04-20T09:19:31;95889.19;;;6.09;100.00
19023;BME280;35226;48.606;8.858;2023-04-20T09:21:58;95894.31;;;6.07;100.00
19023;BME280;35226;48.606;8.858;2023-04-20T09:24:32;95886.38;;;6.13;100.00
19023;BME280;35226;48.606;8.858;2023-04-20T09:26:58;95883.66;;;5.93;100.00
19023;BME280;35226;48.606;8.858;2023-04-20T09:29:26;95884.47;;;6.10;100.00
19023;BME280;35226;48.606;8.858;2023-04-20T09:31:52;95892.03;;;6.06;100.00
19023;BME280;35226;48.606;8.858;2023-04-20T09:34:19;95888.84;;;6.07;100.00
19023;BME280;35226;48.606;8.858;2023-04-20T09:36:48;95893.22;;;6.05;100.00
19023;BME280;35226;48.606;8.858;2023-04-20T09:39:19;95882.66;;;6.03;100.00
19023;BME280;35226;48.606;8.858;2023-04-20T09:41:47;95886.03;;;6.11;100.00
19023;BME280;35226;48.606;8.858;2023-04-20T09:44:14;95892.91;;;6.19;100.00
19023;BME280;35226;48.606;8.858;2023-04-20T09:46:40;95885.44;;;6.19;100.00
19023;BME280;35226;48.606;8.858;2023-04-20T09:49:08;95881.34;;;6.27;100.00
19023;BME280;35226;48.606;8.858;2023-04-20T09:51:36;95875.97;;;6.24;100.00
19023;BME280;35226;48.606;8.858;2023-04-20T09:54:04;95879.19;;;6.19;100.00
19023;BME280;35226;48.606;8.858;2023-04-20T09:56:31;95883.91;;;6.18;100.00
19023;BME280;35226;48.606;8.858;2023-04-20T09:58:58;95877.75;;;6.30;100.00
19023;BME280;35226;48.606;8.858;2023-04-20T10:01:23;95876.50;;;6.35;100.00
19023;BME280;35226;48.606;8.858;2023-04-20T10:03:51;95884.41;;;6.13;100.00
19023;BME280;35226;48.606;8.858;2023-04-20T10:06:27;95876.16;;;6.33;100.00
19023;BME280;35226;48.606;8.858;2023-04-20T10:08:54;95872.81;;;6.42;100.00
19023;BME280;35226;48.606;8.858;2023-04-20T10:11:28;95878.31;;;6.42;100.00
19023;BME280;35226;48.606;8.858;2023-04-20T10:13:55;95862.34;;;6.37;100.00
19023;BME280;35226;48.606;8.858;2023-04-20T10:16:21;95863.81;;;6.57;100.00
19023;BME280;35226;48.606;8.858;2023-04-20T10:18:56;95855.69;;;6.54;100.00
19023;BME280;35226;48.606;8.858;2023-04-20T10:21:22;95841.72;;;6.64;100.00
19023;BME280;35226;48.606;8.858;2023-04-20T10:23:49;95847.44;;;6.70;100.00
19023;BME280;35226;48.606;8.858;2023-04-20T10:26:15;95830.03;;;6.77;100.00
19023;BME280;35226;48.606;8.858;2023-04-20T10:28:41;95832.09;;;6.73;100.00
19023;BME280;35226;48.606;8.858;2023-04-20T10:31:12;95834.47;;;6.87;100.00
19023;BME280;35226;48.606;8.858;2023-04-20T10:33:52;95830.97;;;6.86;100.00
19023;BME280;35226;48.606;8.858;2023-04-20T10:36:29;95834.31;;;6.94;100.00
19023;BME280;35226;48.606;8.858;2023-04-20T10:38:56;95838.00;;;6.87;100.00
19023;BME280;35226;48.606;8.858;2023-04-20T10:41:22;95837.22;;;6.87;100.00
19023;BME280;35226;48.606;8.858;2023-04-20T10:43:48;95826.34;;;6.83;100.00
19023;BME280;35226;48.606;8.858;2023-04-20T10:46:21;95822.25;;;6.75;100.00
19023;BME280;35226;48.606;8.858;2023-04-20T10:48:58;95819.97;;;6.86;100.00
19023;BME280;35226;48.606;8.858;2023-04-20T10:51:25;95822.91;;;6.79;100.00
19023;BME280;35226;48.606;8.858;2023-04-20T10:54:17;95816.47;;;6.86;100.00
19023;BME280;35226;48.606;8.858;2023-04-20T10:56:45;95816.69;;;7.07;100.00
19023;BME280;35226;48.606;8.858;2023-04-20T10:59:13;95821.25;;;7.14;100.00
19023;BME280;35226;48.606;8.858;2023-04-20T11:01:39;95806.75;;;7.14;100.00
19023;BME280;35226;48.606;8.858;2023-04-20T11:04:06;95813.03;;;6.98;100.00
19023;BME280;35226;48.606;8.858;2023-04-20T11:06:32;95810.53;;;7.03;100.00
19023;BME280;35226;48.606;8.858;2023-04-20T11:08:58;95800.78;;;7.15;100.00
19023;BME280;35226;48.606;8.858;2023-04-20T11:11:26;95811.53;;;7.10;100.00
19023;BME280;35226;48.606;8.858;2023-04-20T11:14:09;95821.34;;;7.11;100.00
19023;BME280;35226;48.606;8.858;2023-04-20T11:16:35;95831.00;;;7.15;100.00
19023;BME280;35226;48.606;8.858;2023-04-20T11:19:01;95828.72;;;6.97;100.00
19023;BME280;35226;48.606;8.858;2023-04-20T11:21:39;95843.75;;;6.93;100.00
19023;BME280;35226;48.606;8.858;2023-04-20T11:24:16;95837.75;;;6.98;100.00
19023;BME280;35226;48.606;8.858;2023-04-20T11:26:43;95841.69;;;6.97;100.00
19023;BME280;35226;48.606;8.858;2023-04-20T11:29:09;95834.72;;;7.09;100.00
19023;BME280;35226;48.606;8.858;2023-04-20T11:31:35;95833.88;;;7.12;100.00
19023;BME280;35226;48.606;8.858;2023-04-20T11:34:01;95824.84;;;7.11;100.00
19023;BME280;35226;48.606;8.858;2023-04-20T11:36:28;95824.78;;;7.15;100.00
19023;BME280;35226;48.606;8.858;2023-04-20T11:38:54;95827.25;;;7.09;100.00
19023;BME280;35226;48.606;8.858;2023-04-20T11:41:20;95834.56;;;6.99;100.00
19023;BME280;35226;48.606;8.858;2023-04-20T11:43:46;95831.97;;;7.09;100.00
19023;BME280;35226;48.606;8.858;2023-04-20T11:46:18;95833.53;;;7.10;100.00
19023;BME280;35226;48.606;8.858;2023-04-20T11:48:45;95828.09;;;7.06;100.00
19023;BME280;35226;48.606;8.858;2023-04-20T11:51:12;95828.94;;;7.19;100.00
19023;BME280;35226;48.606;8.858;2023-04-20T11:53:37;95818.50;;;7.14;100.00
19023;BME280;35226;48.606;8.858;2023-04-20T11:56:04;95821.13;;;7.18;100.00
19023;BME280;35226;48.606;8.858;2023-04-20T11:58:30;95814.53;;;7.15;100.00
19023;BME280;35226;48.606;8.858;2023-04-20T12:00:55;95808.38;;;7.11;100.00
19023;BME280;35226;48.606;8.858;2023-04-20T12:03:21;95817.72;;;7.14;100.00
19023;BME280;35226;48.606;8.858;2023-04-20T12:05:47;95814.50;;;7.02;100.00
19023;BME280;35226;48.606;8.858;2023-04-20T12:08:12;95812.16;;;7.01;100.00
19023;BME280;35226;48.606;8.858;2023-04-20T12:10:38;95820.31;;;7.04;100.00
19023;BME280;35226;48.606;8.858;2023-04-20T12:13:04;95813.03;;;6.98;100.00
19023;BME280;35226;48.606;8.858;2023-04-20T12:15:30;95820.63;;;7.06;100.00
19023;BME280;35226;48.606;8.858;2023-04-20T12:17:56;95805.97;;;6.97;100.00
19023;BME280;35226;48.606;8.858;2023-04-20T12:20:22;95814.06;;;7.04;100.00
19023;BME280;35226;48.606;8.858;2023-04-20T12:22:47;95810.19;;;7.01;100.00
19023;BME280;35226;48.606;8.858;2023-04-20T12:25:13;95809.50;;;6.97;100.00
19023;BME280;35226;48.606;8.858;2023-04-20T12:27:39;95800.84;;;6.99;100.00
19023;BME280;35226;48.606;8.858;2023-04-20T12:30:05;95810.63;;;7.00;100.00
19023;BME280;35226;48.606;8.858;2023-04-20T12:32:31;95803.66;;;6.95;100.00
19023;BME280;35226;48.606;8.858;2023-04-20T12:34:56;95807.53;;;6.98;100.00
19023;BME280;35226;48.606;8.858;2023-04-20T12:37:23;95804.00;;;6.97;100.00
19023;BME280;35226;48.606;8.858;2023-04-20T12:39:49;95802.06;;;6.82;100.00
19023;BME280;35226;48.606;8.858;2023-04-20T12:42:14;95804.44;;;6.96;100.00
19023;BME280;35226;48.606;8.858;2023-04-20T12:44:40;95803.50;;;7.02;100.00
19023;BME280;35226;48.606;8.858;2023-04-20T12:47:05;95796.63;;;7.11;100.00
19023;BME280;35226;48.606;8.858;2023-04-20T12:49:31;95784.00;;;6.97;100.00
19023;BME280;35226;48.606;8.858;2023-04-20T12:51:56;95781.34;;;7.10;100.00
19023;BME280;35226;48.606;8.858;2023-04-20T12:54:22;95781.88;;;7.04;100.00
19023;BME280;35226;48.606;8.858;2023-04-20T12:56:47;95787.41;;;7.17;100.00
19023;BME280;35226;48.606;8.858;2023-04-20T12:59:13;95781.69;;;7.12;100.00
19023;BME280;35226;48.606;8.858;2023-04-20T13:01:39;95797.38;;;7.11;100.00